createdAt,value
2017-11-29T00:00:38.046Z,0
2017-11-29T00:01:18.578Z,0
2017-11-29T00:01:59.155Z,0
2017-11-29T00:02:39.674Z,0
2017-11-29T00:03:20.198Z,0
2017-11-29T00:04:00.708Z,0
2017-11-29T00:04:41.241Z,0
2017-11-29T00:05:21.776Z,0
2017-11-29T00:06:02.300Z,0
2017-11-29T00:06:42.840Z,0
2017-11-29T00:07:23.348Z,0
2017-11-29T00:08:03.862Z,0
2017-11-29T00:08:44.384Z,0
2017-11-29T00:09:24.901Z,0
2017-11-29T00:10:05.423Z,0
2017-11-29T00:10:45.934Z,0
2017-11-29T00:11:26.461Z,0
2017-11-29T00:12:07.022Z,0
2017-11-29T00:12:47.523Z,0
2017-11-29T00:13:28.028Z,0
2017-11-29T00:14:08.547Z,0
2017-11-29T00:14:49.071Z,0
2017-11-29T00:15:29.590Z,0
2017-11-29T00:16:10.117Z,0
2017-11-29T00:16:50.625Z,0
2017-11-29T00:17:31.140Z,0
2017-11-29T00:18:11.646Z,0
2017-11-29T00:18:52.182Z,0
2017-11-29T00:19:32.704Z,0
2017-11-29T00:20:13.216Z,0
2017-11-29T00:20:53.760Z,0
2017-11-29T00:21:34.327Z,0
2017-11-29T00:22:14.849Z,0
2017-11-29T00:22:55.375Z,0
2017-11-29T00:23:35.878Z,0
2017-11-29T00:24:16.403Z,0
2017-11-29T00:24:56.916Z,0
2017-11-29T00:25:37.422Z,0
2017-11-29T00:26:17.950Z,0
2017-11-29T00:26:58.486Z,0
2017-11-29T00:27:39.009Z,0
2017-11-29T00:28:19.532Z,0
2017-11-29T00:29:00.053Z,0
2017-11-29T00:29:40.578Z,0
2017-11-29T00:30:21.086Z,0
2017-11-29T00:31:01.617Z,0
2017-11-29T00:31:42.146Z,0
2017-11-29T00:32:22.648Z,0
2017-11-29T00:33:03.187Z,0
2017-11-29T00:33:43.700Z,0
2017-11-29T00:34:24.236Z,0
2017-11-29T00:35:04.758Z,0
2017-11-29T00:35:45.271Z,0
2017-11-29T00:36:25.790Z,0
2017-11-29T00:37:06.328Z,0
2017-11-29T00:37:46.848Z,0
2017-11-29T00:38:27.372Z,0
2017-11-29T00:39:07.894Z,0
2017-11-29T00:39:48.412Z,0
2017-11-29T00:40:28.945Z,0
2017-11-29T00:41:09.476Z,0
2017-11-29T00:41:49.990Z,0
2017-11-29T00:42:30.502Z,0
2017-11-29T00:43:11.047Z,0
2017-11-29T00:43:51.569Z,0
2017-11-29T00:44:32.096Z,0
2017-11-29T00:45:12.601Z,0
2017-11-29T00:45:53.133Z,0
2017-11-29T00:46:33.644Z,0
2017-11-29T00:47:14.167Z,0
2017-11-29T00:47:54.691Z,0
2017-11-29T00:48:35.207Z,0
2017-11-29T00:49:15.720Z,0
2017-11-29T00:49:56.247Z,0
2017-11-29T00:50:36.755Z,0
2017-11-29T00:51:17.273Z,0
2017-11-29T00:51:57.791Z,0
2017-11-29T00:52:38.324Z,0
2017-11-29T00:53:18.844Z,0
2017-11-29T00:53:59.377Z,0
2017-11-29T00:54:39.899Z,0
2017-11-29T00:55:20.424Z,0
2017-11-29T00:56:00.939Z,0
2017-11-29T00:56:41.449Z,0
2017-11-29T00:57:21.972Z,0
2017-11-29T00:58:02.493Z,0
2017-11-29T00:58:43.005Z,0
2017-11-29T00:59:23.556Z,0
2017-11-29T01:00:04.070Z,0
2017-11-29T01:00:44.595Z,0
2017-11-29T01:01:25.098Z,0
2017-11-29T01:02:05.612Z,0
2017-11-29T01:02:46.143Z,0
2017-11-29T01:03:26.649Z,0
2017-11-29T01:04:07.180Z,0
2017-11-29T01:04:47.679Z,0
2017-11-29T01:05:28.184Z,0
2017-11-29T01:06:08.722Z,0
2017-11-29T01:06:49.256Z,0
2017-11-29T01:07:29.768Z,0
2017-11-29T01:08:10.286Z,0
2017-11-29T01:08:50.796Z,0
2017-11-29T01:09:31.339Z,0
2017-11-29T01:10:11.857Z,0
2017-11-29T01:10:52.374Z,0
2017-11-29T01:11:32.901Z,0
2017-11-29T01:12:13.439Z,0
2017-11-29T01:12:53.957Z,0
2017-11-29T01:13:34.480Z,0
2017-11-29T01:14:15.011Z,0
2017-11-29T01:14:55.513Z,0
2017-11-29T01:15:36.045Z,0
2017-11-29T01:16:16.574Z,0
2017-11-29T01:16:57.093Z,0
2017-11-29T01:17:37.607Z,0
2017-11-29T01:18:18.134Z,0
2017-11-29T01:18:58.649Z,0
2017-11-29T01:19:39.181Z,0
2017-11-29T01:20:19.690Z,0
2017-11-29T01:21:00.214Z,0
2017-11-29T01:21:40.743Z,0
2017-11-29T01:22:21.263Z,0
2017-11-29T01:23:01.801Z,0
2017-11-29T01:23:42.317Z,0
2017-11-29T01:24:22.844Z,0
2017-11-29T01:25:03.363Z,0
2017-11-29T01:25:43.887Z,0
2017-11-29T01:26:24.423Z,0
2017-11-29T01:27:04.963Z,0
2017-11-29T01:27:45.489Z,0
2017-11-29T01:28:26.004Z,0
2017-11-29T01:29:06.512Z,0
2017-11-29T01:29:47.037Z,0
2017-11-29T01:30:27.556Z,0
2017-11-29T01:31:08.074Z,0
2017-11-29T01:31:48.611Z,0
2017-11-29T01:32:29.131Z,0
2017-11-29T01:33:09.648Z,0
2017-11-29T01:33:50.175Z,0
2017-11-29T01:34:30.711Z,0
2017-11-29T01:35:11.221Z,0
2017-11-29T01:35:51.748Z,0
2017-11-29T01:36:32.272Z,0
2017-11-29T01:37:12.795Z,0
2017-11-29T01:37:53.314Z,0
2017-11-29T01:38:33.837Z,0
2017-11-29T01:39:14.361Z,0
2017-11-29T01:39:54.873Z,0
2017-11-29T01:40:35.412Z,0
2017-11-29T01:41:15.932Z,0
2017-11-29T01:41:56.459Z,0
2017-11-29T01:42:36.982Z,0
2017-11-29T01:43:17.495Z,0
2017-11-29T01:43:58.020Z,0
2017-11-29T01:44:38.538Z,0
2017-11-29T01:45:19.074Z,0
2017-11-29T01:45:59.576Z,0
2017-11-29T01:46:40.095Z,0
2017-11-29T01:47:20.622Z,0
2017-11-29T01:48:01.151Z,0
2017-11-29T01:48:41.688Z,0
2017-11-29T01:49:22.221Z,0
2017-11-29T01:50:02.748Z,0
2017-11-29T01:50:43.259Z,0
2017-11-29T01:51:23.779Z,0
2017-11-29T01:52:04.292Z,0
2017-11-29T01:52:44.810Z,0
2017-11-29T01:53:25.350Z,0
2017-11-29T01:54:05.883Z,0
2017-11-29T01:54:46.402Z,0
2017-11-29T01:55:26.926Z,0
2017-11-29T01:56:07.460Z,0
2017-11-29T01:56:47.981Z,0
2017-11-29T01:57:28.509Z,0
2017-11-29T01:58:09.043Z,0
2017-11-29T01:58:49.587Z,0
2017-11-29T01:59:30.099Z,0
2017-11-29T02:00:10.617Z,0
2017-11-29T02:00:51.172Z,0
2017-11-29T02:01:31.688Z,0
2017-11-29T02:02:12.211Z,0
2017-11-29T02:02:52.732Z,0
2017-11-29T02:03:33.276Z,0
2017-11-29T02:04:13.771Z,0
2017-11-29T02:04:54.283Z,0
2017-11-29T02:05:34.800Z,0
2017-11-29T02:06:15.315Z,0
2017-11-29T02:06:55.839Z,0
2017-11-29T02:07:36.366Z,0
2017-11-29T02:08:16.890Z,0
2017-11-29T02:08:57.396Z,0
2017-11-29T02:09:37.914Z,0
2017-11-29T02:10:18.436Z,0
2017-11-29T02:10:58.968Z,0
2017-11-29T02:11:39.486Z,0
2017-11-29T02:12:19.992Z,0
2017-11-29T02:13:00.523Z,0
2017-11-29T02:13:41.045Z,0
2017-11-29T02:14:21.583Z,0
2017-11-29T02:15:02.120Z,0
2017-11-29T02:15:42.620Z,0
2017-11-29T02:16:23.152Z,0
2017-11-29T02:17:03.696Z,0
2017-11-29T02:17:44.193Z,0
2017-11-29T02:18:24.721Z,0
2017-11-29T02:19:05.252Z,0
2017-11-29T02:19:45.780Z,0
2017-11-29T02:20:26.316Z,0
2017-11-29T02:21:06.832Z,0
2017-11-29T02:21:47.353Z,0
2017-11-29T02:22:27.912Z,0
2017-11-29T02:23:08.389Z,0
2017-11-29T02:23:48.896Z,0
2017-11-29T02:24:29.405Z,0
2017-11-29T02:25:09.932Z,0
2017-11-29T02:25:50.445Z,0
2017-11-29T02:26:30.972Z,0
2017-11-29T02:27:11.504Z,0
2017-11-29T02:27:52.012Z,0
2017-11-29T02:28:32.596Z,0
2017-11-29T02:29:13.088Z,0
2017-11-29T02:29:53.620Z,0
2017-11-29T02:30:34.147Z,0
2017-11-29T02:31:14.680Z,0
2017-11-29T02:31:55.221Z,0
2017-11-29T02:32:35.747Z,0
2017-11-29T02:33:16.272Z,0
2017-11-29T02:33:56.809Z,0
2017-11-29T02:34:37.321Z,0
2017-11-29T02:35:17.866Z,0
2017-11-29T02:35:58.373Z,0
2017-11-29T02:36:38.893Z,0
2017-11-29T02:37:19.412Z,0
2017-11-29T02:37:59.948Z,0
2017-11-29T02:38:40.484Z,0
2017-11-29T02:39:20.990Z,0
2017-11-29T02:40:01.511Z,0
2017-11-29T02:40:42.025Z,0
2017-11-29T02:41:22.530Z,0
2017-11-29T02:42:03.052Z,0
2017-11-29T02:42:43.574Z,0
2017-11-29T02:43:24.087Z,0
2017-11-29T02:44:04.602Z,0
2017-11-29T02:44:45.104Z,0
2017-11-29T02:45:25.623Z,0
2017-11-29T02:46:06.162Z,0
2017-11-29T02:46:46.680Z,0
2017-11-29T02:47:27.194Z,0
2017-11-29T02:48:07.723Z,0
2017-11-29T02:48:48.245Z,0
2017-11-29T02:49:28.770Z,0
2017-11-29T02:50:09.265Z,0
2017-11-29T02:50:49.802Z,0
2017-11-29T02:51:30.363Z,0
2017-11-29T02:52:10.929Z,0
2017-11-29T02:52:51.464Z,0
2017-11-29T02:53:32.032Z,0
2017-11-29T02:54:12.522Z,0
2017-11-29T02:54:53.048Z,0
2017-11-29T02:55:33.558Z,0
2017-11-29T02:56:14.086Z,0
2017-11-29T02:56:54.599Z,0
2017-11-29T02:57:35.133Z,0
2017-11-29T02:58:15.660Z,0
2017-11-29T02:58:56.195Z,0
2017-11-29T02:59:36.741Z,0
2017-11-29T03:00:17.255Z,0
2017-11-29T03:00:57.775Z,0
2017-11-29T03:01:38.311Z,0
2017-11-29T03:02:18.838Z,0
2017-11-29T03:02:59.377Z,0
2017-11-29T03:03:39.901Z,0
2017-11-29T03:04:20.427Z,0
2017-11-29T03:05:00.964Z,0
2017-11-29T03:05:41.489Z,0
2017-11-29T03:06:21.986Z,0
2017-11-29T03:07:02.512Z,0
2017-11-29T03:07:43.042Z,0
2017-11-29T03:08:23.562Z,0
2017-11-29T03:09:04.080Z,0
2017-11-29T03:09:44.608Z,0
2017-11-29T03:10:25.142Z,0
2017-11-29T03:11:05.685Z,0
2017-11-29T03:11:46.186Z,0
2017-11-29T03:12:26.713Z,0
2017-11-29T03:13:07.241Z,0
2017-11-29T03:13:47.764Z,0
2017-11-29T03:14:28.300Z,0
2017-11-29T03:15:08.826Z,0
2017-11-29T03:15:49.346Z,0
2017-11-29T03:16:29.858Z,0
2017-11-29T03:17:10.383Z,0
2017-11-29T03:17:50.912Z,0
2017-11-29T03:18:31.440Z,0
2017-11-29T03:19:11.951Z,0
2017-11-29T03:19:52.470Z,0
2017-11-29T03:20:32.994Z,0
2017-11-29T03:21:13.557Z,0
2017-11-29T03:21:54.051Z,0
2017-11-29T03:22:34.572Z,0
2017-11-29T03:23:15.094Z,0
2017-11-29T03:23:55.618Z,0
2017-11-29T03:24:36.144Z,0
2017-11-29T03:25:16.647Z,0
2017-11-29T03:25:57.171Z,0
2017-11-29T03:26:37.686Z,0
2017-11-29T03:27:18.218Z,0
2017-11-29T03:27:58.744Z,0
2017-11-29T03:28:39.261Z,0
2017-11-29T03:29:19.790Z,0
2017-11-29T03:30:00.327Z,0
2017-11-29T03:30:40.849Z,0
2017-11-29T03:31:21.378Z,0
2017-11-29T03:32:01.889Z,0
2017-11-29T03:32:42.423Z,0
2017-11-29T03:33:22.941Z,0
2017-11-29T03:34:03.464Z,0
2017-11-29T03:34:43.985Z,0
2017-11-29T03:35:24.521Z,0
2017-11-29T03:36:05.062Z,0
2017-11-29T03:36:45.573Z,0
2017-11-29T03:37:26.098Z,0
2017-11-29T03:38:06.620Z,0
2017-11-29T03:38:47.149Z,0
2017-11-29T03:39:27.666Z,0
2017-11-29T03:40:08.206Z,0
2017-11-29T03:40:48.734Z,0
2017-11-29T03:41:29.254Z,0
2017-11-29T03:42:09.788Z,0
2017-11-29T03:42:50.278Z,0
2017-11-29T03:43:30.803Z,0
2017-11-29T03:44:11.322Z,0
2017-11-29T03:44:51.848Z,0
2017-11-29T03:45:32.387Z,0
2017-11-29T03:46:12.917Z,0
2017-11-29T03:46:53.442Z,0
2017-11-29T03:47:33.960Z,0
2017-11-29T03:48:14.458Z,0
2017-11-29T03:48:54.989Z,0
2017-11-29T03:49:35.533Z,0
2017-11-29T03:50:16.055Z,0
2017-11-29T03:50:56.583Z,0
2017-11-29T03:51:37.132Z,0
2017-11-29T03:52:17.655Z,0
2017-11-29T03:52:58.171Z,0
2017-11-29T03:53:38.703Z,0
2017-11-29T03:54:19.227Z,0
2017-11-29T03:54:59.762Z,0
2017-11-29T03:55:40.285Z,0
2017-11-29T03:56:20.806Z,0
2017-11-29T03:57:01.331Z,0
2017-11-29T03:57:41.852Z,0
2017-11-29T03:58:22.380Z,0
2017-11-29T03:59:02.902Z,0
2017-11-29T03:59:43.419Z,0
2017-11-29T04:00:23.963Z,0
2017-11-29T04:01:04.489Z,0
2017-11-29T04:01:45.012Z,0
2017-11-29T04:02:25.538Z,0
2017-11-29T04:03:06.063Z,0
2017-11-29T04:03:46.572Z,0
2017-11-29T04:04:27.091Z,0
2017-11-29T04:05:07.630Z,0
2017-11-29T04:05:48.166Z,0
2017-11-29T04:06:28.703Z,0
2017-11-29T04:07:09.204Z,0
2017-11-29T04:07:49.737Z,0
2017-11-29T04:08:30.262Z,0
2017-11-29T04:09:10.771Z,0
2017-11-29T04:09:51.286Z,0
2017-11-29T04:10:31.813Z,0
2017-11-29T04:11:12.330Z,0
2017-11-29T04:11:52.860Z,0
2017-11-29T04:12:33.385Z,0
2017-11-29T04:13:13.920Z,0
2017-11-29T04:13:54.441Z,0
2017-11-29T04:14:34.946Z,0
2017-11-29T04:15:15.469Z,0
2017-11-29T04:15:55.984Z,0
2017-11-29T04:16:36.691Z,0
2017-11-29T04:17:17.260Z,0
2017-11-29T04:17:57.782Z,0
2017-11-29T04:18:38.321Z,0
2017-11-29T04:19:18.820Z,0
2017-11-29T04:19:59.344Z,0
2017-11-29T04:20:39.876Z,0
2017-11-29T04:21:20.402Z,0
2017-11-29T04:22:00.948Z,0
2017-11-29T04:22:41.491Z,0
2017-11-29T04:23:22.018Z,0
2017-11-29T04:24:02.549Z,0
2017-11-29T04:24:43.085Z,0
2017-11-29T04:25:23.602Z,0
2017-11-29T04:26:04.120Z,0
2017-11-29T04:26:44.653Z,0
2017-11-29T04:27:25.156Z,0
2017-11-29T04:28:05.676Z,0
2017-11-29T04:28:46.200Z,0
2017-11-29T04:29:26.714Z,0
2017-11-29T04:30:07.245Z,0
2017-11-29T04:30:47.773Z,0
2017-11-29T04:31:28.305Z,0
2017-11-29T04:32:08.828Z,0
2017-11-29T04:32:49.341Z,0
2017-11-29T04:33:29.861Z,0
2017-11-29T04:34:10.440Z,0
2017-11-29T04:34:50.941Z,0
2017-11-29T04:35:31.449Z,0
2017-11-29T04:36:11.960Z,0
2017-11-29T04:36:52.470Z,0
2017-11-29T04:37:32.984Z,0
2017-11-29T04:38:13.510Z,0
2017-11-29T04:38:54.034Z,0
2017-11-29T04:39:34.540Z,0
2017-11-29T04:40:15.059Z,0
2017-11-29T04:40:55.588Z,0
2017-11-29T04:41:36.117Z,0
2017-11-29T04:42:16.644Z,0
2017-11-29T04:42:57.161Z,0
2017-11-29T04:43:37.694Z,0
2017-11-29T04:44:18.235Z,0
2017-11-29T04:44:58.755Z,0
2017-11-29T04:45:39.274Z,0
2017-11-29T04:46:19.806Z,0
2017-11-29T04:47:00.323Z,0
2017-11-29T04:47:40.830Z,0
2017-11-29T04:48:21.367Z,0
2017-11-29T04:49:01.892Z,0
2017-11-29T04:49:42.437Z,0
2017-11-29T04:50:22.943Z,0
2017-11-29T04:51:03.478Z,0
2017-11-29T04:51:44.028Z,0
2017-11-29T04:52:24.541Z,0
2017-11-29T04:53:05.060Z,0
2017-11-29T04:53:45.586Z,0
2017-11-29T04:54:26.089Z,0
2017-11-29T04:55:06.617Z,0
2017-11-29T04:55:47.159Z,0
2017-11-29T04:56:27.697Z,0
2017-11-29T04:57:08.224Z,0
2017-11-29T04:57:48.741Z,0
2017-11-29T04:58:29.278Z,0
2017-11-29T04:59:09.842Z,0
2017-11-29T04:59:50.361Z,0
2017-11-29T05:00:30.872Z,0
2017-11-29T05:01:11.409Z,0
2017-11-29T05:01:51.988Z,0
2017-11-29T05:02:32.494Z,0
2017-11-29T05:03:13.116Z,0
2017-11-29T05:03:54.045Z,0
2017-11-29T05:04:34.778Z,0
2017-11-29T05:05:15.722Z,0
2017-11-29T05:05:56.363Z,0
2017-11-29T05:06:36.948Z,0
2017-11-29T05:07:19.081Z,0
2017-11-29T05:08:00.805Z,0
2017-11-29T05:08:43.070Z,0
2017-11-29T05:09:25.469Z,0
2017-11-29T05:10:07.963Z,0
2017-11-29T05:10:49.728Z,0
2017-11-29T05:13:30.796Z,0
2017-11-29T05:14:11.318Z,0
2017-11-29T05:14:51.846Z,0
2017-11-29T05:15:32.318Z,0
2017-11-29T05:16:12.835Z,0
2017-11-29T05:16:53.339Z,0
2017-11-29T05:17:33.836Z,0
2017-11-29T05:18:14.340Z,0
2017-11-29T05:18:54.855Z,0
2017-11-29T05:19:35.359Z,0
2017-11-29T05:20:15.870Z,0
2017-11-29T05:20:56.414Z,0
2017-11-29T05:21:36.949Z,0
2017-11-29T05:22:17.457Z,0
2017-11-29T05:22:57.966Z,0
2017-11-29T05:23:38.483Z,0
2017-11-29T05:24:19.005Z,0
2017-11-29T05:24:59.521Z,0
2017-11-29T05:25:40.055Z,0
2017-11-29T05:26:20.550Z,0
2017-11-29T05:27:01.058Z,0
2017-11-29T05:27:41.568Z,0
2017-11-29T05:28:22.068Z,0
2017-11-29T05:29:02.600Z,0
2017-11-29T05:29:43.131Z,0
2017-11-29T05:30:23.622Z,0
2017-11-29T05:31:04.177Z,0
2017-11-29T05:31:44.705Z,0
2017-11-29T05:32:25.243Z,0
2017-11-29T05:33:05.730Z,0
2017-11-29T05:33:46.655Z,0
2017-11-29T05:34:27.174Z,0
2017-11-29T05:35:07.686Z,0
2017-11-29T05:35:48.223Z,0
2017-11-29T05:36:28.747Z,0
2017-11-29T05:37:09.266Z,0
2017-11-29T05:37:49.780Z,0
2017-11-29T05:38:30.314Z,0
2017-11-29T05:39:10.834Z,0
2017-11-29T05:39:51.361Z,0
2017-11-29T05:40:31.885Z,0
2017-11-29T05:41:12.421Z,0
2017-11-29T05:41:52.950Z,0
2017-11-29T05:44:32.593Z,0
2017-11-29T05:45:13.112Z,0
2017-11-29T05:45:53.628Z,0
2017-11-29T05:46:34.742Z,0
2017-11-29T05:47:15.246Z,0
2017-11-29T05:47:55.777Z,0
2017-11-29T05:48:36.299Z,0
2017-11-29T05:49:16.822Z,0
2017-11-29T05:49:57.328Z,0
2017-11-29T05:50:37.881Z,0
2017-11-29T05:51:18.387Z,0
2017-11-29T05:51:58.883Z,0
2017-11-29T05:52:39.424Z,0
2017-11-29T05:53:19.939Z,0
2017-11-29T05:54:00.451Z,0
2017-11-29T05:54:40.967Z,0
2017-11-29T05:55:21.473Z,0
2017-11-29T05:56:02.006Z,0
2017-11-29T05:56:42.518Z,0
2017-11-29T05:57:23.023Z,0
2017-11-29T05:58:03.520Z,0
2017-11-29T05:58:44.039Z,0
2017-11-29T05:59:24.560Z,0
2017-11-29T06:00:05.067Z,0
2017-11-29T06:00:45.584Z,0
2017-11-29T06:01:26.102Z,0
2017-11-29T06:02:06.619Z,0
2017-11-29T06:02:47.156Z,0
2017-11-29T06:03:27.674Z,0
2017-11-29T06:04:08.208Z,0
2017-11-29T06:04:48.745Z,0
2017-11-29T06:05:29.270Z,0
2017-11-29T06:06:10.046Z,0
2017-11-29T06:06:50.910Z,0
2017-11-29T06:07:31.652Z,0
2017-11-29T06:08:12.190Z,0
2017-11-29T06:08:52.715Z,0
2017-11-29T06:09:33.213Z,0
2017-11-29T06:10:13.728Z,0
2017-11-29T06:10:54.242Z,0
2017-11-29T06:11:34.747Z,0
2017-11-29T06:12:15.285Z,0
2017-11-29T06:12:55.812Z,0
2017-11-29T06:13:36.335Z,0
2017-11-29T06:14:16.854Z,0
2017-11-29T06:14:57.396Z,0
2017-11-29T06:15:37.900Z,0
2017-11-29T06:16:18.483Z,0
2017-11-29T06:16:59.010Z,0
2017-11-29T06:17:39.548Z,0
2017-11-29T06:18:20.058Z,0
2017-11-29T06:19:00.571Z,0
2017-11-29T06:19:41.092Z,0
2017-11-29T06:20:21.630Z,0
2017-11-29T06:21:02.175Z,0
2017-11-29T06:21:42.686Z,0
2017-11-29T06:22:23.201Z,0
2017-11-29T06:23:03.705Z,0
2017-11-29T06:23:44.230Z,0
2017-11-29T06:24:24.735Z,0
2017-11-29T06:25:05.237Z,0
2017-11-29T06:25:45.735Z,0
2017-11-29T06:26:26.266Z,0
2017-11-29T06:27:06.803Z,0
2017-11-29T06:27:47.333Z,0
2017-11-29T06:28:27.850Z,0
2017-11-29T06:29:08.382Z,0
2017-11-29T06:29:48.903Z,0
2017-11-29T06:30:29.488Z,0
2017-11-29T06:31:09.996Z,0
2017-11-29T06:31:50.490Z,0
2017-11-29T06:32:31.029Z,0
2017-11-29T06:33:11.529Z,0
2017-11-29T06:35:47.041Z,0
2017-11-29T06:36:27.550Z,0
2017-11-29T06:37:08.064Z,0
2017-11-29T06:37:48.589Z,0
2017-11-29T06:38:29.104Z,0
2017-11-29T06:39:09.594Z,0
2017-11-29T06:39:50.110Z,0
2017-11-29T06:40:31.885Z,0
2017-11-29T06:41:13.588Z,0
2017-11-29T06:41:55.761Z,0
2017-11-29T06:42:37.719Z,0
2017-11-29T06:43:20.188Z,0
2017-11-29T06:44:02.108Z,0
2017-11-29T06:44:42.650Z,0
2017-11-29T06:45:23.147Z,0
2017-11-29T06:46:03.668Z,0
2017-11-29T06:46:44.205Z,0
2017-11-29T06:47:24.711Z,0
2017-11-29T06:48:05.226Z,0
2017-11-29T06:48:45.755Z,0
2017-11-29T06:49:26.284Z,0
2017-11-29T06:50:06.800Z,0
2017-11-29T06:50:47.754Z,0
2017-11-29T06:51:28.284Z,0
2017-11-29T06:52:08.841Z,0
2017-11-29T06:52:49.384Z,0
2017-11-29T06:53:29.867Z,0
2017-11-29T06:54:10.410Z,0
2017-11-29T06:54:50.903Z,0
2017-11-29T06:55:31.394Z,0
2017-11-29T06:56:11.924Z,0
2017-11-29T06:56:52.421Z,0
2017-11-29T06:57:32.936Z,0
2017-11-29T06:58:13.447Z,0
2017-11-29T06:58:53.951Z,0
2017-11-29T06:59:34.453Z,0
2017-11-29T07:00:14.952Z,0
2017-11-29T07:00:55.472Z,0
2017-11-29T07:01:35.991Z,0
2017-11-29T07:02:16.500Z,0
2017-11-29T07:02:57.034Z,0
2017-11-29T07:03:37.534Z,0
2017-11-29T07:04:18.062Z,0
2017-11-29T07:04:58.592Z,0
2017-11-29T07:05:39.117Z,0
2017-11-29T07:06:19.662Z,0
2017-11-29T07:07:00.143Z,0
2017-11-29T07:07:40.664Z,0
2017-11-29T07:08:21.179Z,0
2017-11-29T07:09:01.708Z,0
2017-11-29T07:09:42.619Z,0
2017-11-29T07:10:23.546Z,0
2017-11-29T07:11:04.029Z,0
2017-11-29T07:11:44.546Z,0
2017-11-29T07:12:25.076Z,0
2017-11-29T07:13:05.586Z,0
2017-11-29T07:13:46.111Z,0
2017-11-29T07:14:26.782Z,5
2017-11-29T07:15:07.245Z,5
2017-11-29T07:15:47.773Z,5
2017-11-29T07:16:28.283Z,5
2017-11-29T07:17:08.789Z,5
2017-11-29T07:17:49.323Z,5
2017-11-29T07:18:29.851Z,5
2017-11-29T07:19:10.338Z,5
2017-11-29T07:19:50.859Z,5
2017-11-29T07:20:31.377Z,5
2017-11-29T07:21:11.911Z,5
2017-11-29T07:21:52.418Z,5
2017-11-29T07:22:32.934Z,5
2017-11-29T07:23:13.465Z,5
2017-11-29T07:23:54.000Z,5
2017-11-29T07:24:34.511Z,5
2017-11-29T07:25:15.009Z,5
2017-11-29T07:25:55.536Z,5
2017-11-29T07:26:36.064Z,5
2017-11-29T07:27:16.578Z,10
2017-11-29T07:27:57.102Z,10
2017-11-29T07:28:37.601Z,10
2017-11-29T07:29:18.121Z,10
2017-11-29T07:29:58.661Z,10
2017-11-29T07:30:39.178Z,10
2017-11-29T07:31:19.695Z,10
2017-11-29T07:32:00.224Z,10
2017-11-29T07:32:40.756Z,10
2017-11-29T07:33:21.823Z,10
2017-11-29T07:34:02.361Z,10
2017-11-29T07:34:42.861Z,15
2017-11-29T07:35:23.385Z,15
2017-11-29T07:36:03.921Z,15
2017-11-29T07:36:44.441Z,15
2017-11-29T07:37:24.966Z,15
2017-11-29T07:38:05.495Z,15
2017-11-29T07:38:46.032Z,15
2017-11-29T07:39:26.562Z,15
2017-11-29T07:40:07.148Z,15
2017-11-29T07:40:47.651Z,15
2017-11-29T07:41:28.144Z,15
2017-11-29T07:42:08.654Z,15
2017-11-29T07:42:49.201Z,15
2017-11-29T07:43:29.720Z,15
2017-11-29T07:44:10.243Z,15
2017-11-29T07:44:50.767Z,15
2017-11-29T07:45:31.295Z,15
2017-11-29T07:46:11.812Z,15
2017-11-29T07:46:52.353Z,15
2017-11-29T07:47:32.866Z,20
2017-11-29T07:48:13.374Z,20
2017-11-29T07:48:53.901Z,20
2017-11-29T07:49:34.446Z,25
2017-11-29T07:50:14.975Z,25
2017-11-29T07:50:55.506Z,25
2017-11-29T07:51:36.015Z,30
2017-11-29T07:52:16.546Z,30
2017-11-29T07:52:57.059Z,30
2017-11-29T07:53:37.584Z,35
2017-11-29T07:54:18.109Z,35
2017-11-29T07:54:58.644Z,35
2017-11-29T07:55:39.155Z,35
2017-11-29T07:56:19.673Z,40
2017-11-29T07:57:00.199Z,40
2017-11-29T07:57:40.736Z,40
2017-11-29T07:58:21.261Z,40
2017-11-29T07:59:01.767Z,45
2017-11-29T07:59:42.292Z,45
2017-11-29T08:00:22.812Z,50
2017-11-29T08:01:03.323Z,50
2017-11-29T08:01:43.824Z,55
2017-11-29T08:02:24.365Z,55
2017-11-29T08:03:04.896Z,60
2017-11-29T08:03:45.415Z,60
2017-11-29T08:04:25.968Z,60
2017-11-29T08:05:06.511Z,65
2017-11-29T08:05:47.040Z,65
2017-11-29T08:06:27.545Z,65
2017-11-29T08:07:08.069Z,65
2017-11-29T08:07:48.584Z,65
2017-11-29T08:08:29.140Z,65
2017-11-29T08:09:09.667Z,65
2017-11-29T08:09:50.178Z,65
2017-11-29T08:10:30.715Z,65
2017-11-29T08:11:11.238Z,65
2017-11-29T08:11:51.770Z,65
2017-11-29T08:12:32.288Z,65
2017-11-29T08:13:12.810Z,65
2017-11-29T08:13:53.316Z,65
2017-11-29T08:14:33.827Z,70
2017-11-29T08:15:14.339Z,70
2017-11-29T08:15:54.878Z,70
2017-11-29T08:16:35.393Z,70
2017-11-29T08:17:15.911Z,70
2017-11-29T08:17:56.431Z,75
2017-11-29T08:18:36.924Z,75
2017-11-29T08:19:17.427Z,75
2017-11-29T08:19:57.955Z,75
2017-11-29T08:20:38.473Z,75
2017-11-29T08:21:18.990Z,75
2017-11-29T08:21:59.502Z,75
2017-11-29T08:22:40.009Z,80
2017-11-29T08:23:20.535Z,80
2017-11-29T08:24:01.060Z,80
2017-11-29T08:24:41.623Z,80
2017-11-29T08:25:22.127Z,80
2017-11-29T08:26:02.645Z,80
2017-11-29T08:26:43.173Z,85
2017-11-29T08:27:23.686Z,85
2017-11-29T08:28:04.190Z,90
2017-11-29T08:28:44.712Z,90
2017-11-29T08:29:25.237Z,90
2017-11-29T08:30:05.770Z,95
2017-11-29T08:30:46.270Z,95
2017-11-29T08:31:26.769Z,95
2017-11-29T08:32:07.280Z,100
2017-11-29T08:32:47.794Z,100
2017-11-29T08:33:28.289Z,100
2017-11-29T08:34:08.821Z,100
2017-11-29T08:34:49.336Z,100
2017-11-29T08:35:29.831Z,105
2017-11-29T08:36:10.334Z,105
2017-11-29T08:36:50.836Z,105
2017-11-29T08:37:31.326Z,110
2017-11-29T08:38:11.869Z,120
2017-11-29T08:38:52.408Z,120
2017-11-29T08:39:32.915Z,130
2017-11-29T08:40:13.426Z,130
2017-11-29T08:40:53.935Z,140
2017-11-29T08:41:34.461Z,155
2017-11-29T08:42:14.985Z,165
2017-11-29T08:42:55.484Z,170
2017-11-29T08:43:35.993Z,175
2017-11-29T08:44:16.477Z,175
2017-11-29T08:44:57.007Z,170
2017-11-29T08:45:37.521Z,165
2017-11-29T08:46:18.024Z,170
2017-11-29T08:46:58.552Z,185
2017-11-29T08:47:39.066Z,185
2017-11-29T08:48:19.590Z,185
2017-11-29T08:49:00.112Z,185
2017-11-29T08:49:40.635Z,180
2017-11-29T08:50:21.180Z,165
2017-11-29T08:51:01.691Z,155
2017-11-29T08:51:42.231Z,150
2017-11-29T08:52:22.753Z,145
2017-11-29T08:53:03.266Z,140
2017-11-29T08:53:43.793Z,135
2017-11-29T08:54:24.319Z,130
2017-11-29T08:55:04.827Z,130
2017-11-29T08:55:45.333Z,125
2017-11-29T08:56:25.853Z,125
2017-11-29T08:57:06.369Z,125
2017-11-29T08:57:46.893Z,130
2017-11-29T08:58:27.397Z,130
2017-11-29T08:59:07.877Z,140
2017-11-29T08:59:48.421Z,150
2017-11-29T09:00:28.918Z,155
2017-11-29T09:01:09.425Z,155
2017-11-29T09:01:49.963Z,155
2017-11-29T09:02:30.482Z,155
2017-11-29T09:03:11.016Z,145
2017-11-29T09:03:51.534Z,135
2017-11-29T09:04:32.046Z,125
2017-11-29T09:05:12.557Z,115
2017-11-29T09:05:53.092Z,110
2017-11-29T09:06:33.607Z,105
2017-11-29T09:07:14.135Z,105
2017-11-29T09:07:54.643Z,105
2017-11-29T09:08:35.142Z,110
2017-11-29T09:09:15.645Z,115
2017-11-29T09:09:56.164Z,120
2017-11-29T09:10:36.670Z,125
2017-11-29T09:11:17.201Z,130
2017-11-29T09:11:57.729Z,135
2017-11-29T09:12:38.273Z,140
2017-11-29T09:13:18.789Z,140
2017-11-29T09:13:59.368Z,140
2017-11-29T09:14:39.877Z,135
2017-11-29T09:15:20.386Z,140
2017-11-29T09:16:00.905Z,145
2017-11-29T09:16:41.405Z,150
2017-11-29T09:17:21.925Z,170
2017-11-29T09:18:02.414Z,185
2017-11-29T09:18:42.939Z,215
2017-11-29T09:19:23.446Z,275
2017-11-29T09:20:03.974Z,345
2017-11-29T09:20:44.499Z,405
2017-11-29T09:21:24.997Z,405
2017-11-29T09:22:05.522Z,335
2017-11-29T09:22:46.026Z,310
2017-11-29T09:23:26.554Z,335
2017-11-29T09:24:07.063Z,295
2017-11-29T09:24:47.582Z,355
2017-11-29T09:25:28.097Z,300
2017-11-29T09:26:08.592Z,265
2017-11-29T09:26:49.128Z,250
2017-11-29T09:27:29.617Z,255
2017-11-29T09:28:10.136Z,250
2017-11-29T09:28:50.717Z,255
2017-11-29T09:29:31.232Z,450
2017-11-29T09:30:11.762Z,530
2017-11-29T09:30:52.286Z,485
2017-11-29T09:31:32.811Z,405
2017-11-29T09:32:13.339Z,330
2017-11-29T09:32:53.867Z,360
2017-11-29T09:33:34.377Z,350
2017-11-29T09:34:14.905Z,375
2017-11-29T09:34:55.422Z,240
2017-11-29T09:35:35.951Z,380
2017-11-29T09:36:16.480Z,325
2017-11-29T09:36:57.011Z,320
2017-11-29T09:37:37.540Z,295
2017-11-29T09:38:18.053Z,270
2017-11-29T09:38:58.596Z,275
2017-11-29T09:39:39.118Z,300
2017-11-29T09:40:19.654Z,265
2017-11-29T09:41:00.161Z,330
2017-11-29T09:41:40.682Z,375
2017-11-29T09:42:21.219Z,355
2017-11-29T09:43:01.739Z,335
2017-11-29T09:43:42.229Z,310
2017-11-29T09:44:22.747Z,305
2017-11-29T09:45:03.260Z,300
2017-11-29T09:45:43.767Z,305
2017-11-29T09:46:24.292Z,295
2017-11-29T09:47:04.806Z,290
2017-11-29T09:47:45.328Z,295
2017-11-29T09:48:25.822Z,310
2017-11-29T09:49:06.314Z,325
2017-11-29T09:49:46.836Z,305
2017-11-29T09:50:27.421Z,315
2017-11-29T09:51:07.934Z,330
2017-11-29T09:51:48.428Z,360
2017-11-29T09:52:28.973Z,375
2017-11-29T09:53:09.456Z,420
2017-11-29T09:53:49.962Z,345
2017-11-29T09:54:30.488Z,150
2017-11-29T09:55:11.016Z,440
2017-11-29T09:55:51.553Z,435
2017-11-29T09:56:32.067Z,445
2017-11-29T09:57:12.599Z,455